createdAt,value
2022-12-05T00:02:07.545Z,6.40
2022-12-05T00:05:13.620Z,7.27
2022-12-05T00:08:16.659Z,6.55
2022-12-05T00:11:22.725Z,6.07
2022-12-05T00:14:25.745Z,6.50
2022-12-05T00:17:28.702Z,6.57
2022-12-05T00:20:33.118Z,6.18
2022-12-05T00:23:36.214Z,6.28
2022-12-05T00:26:39.350Z,6.40
2022-12-05T00:29:42.351Z,5.40
2022-12-05T00:32:45.443Z,6.40
2022-12-05T00:35:49.767Z,5.63
2022-12-05T00:38:54.398Z,6.10
2022-12-05T00:41:57.395Z,5.75
2022-12-05T00:45:00.408Z,5.88
2022-12-05T00:48:03.585Z,5.90
2022-12-05T00:51:11.649Z,5.65
2022-12-05T00:54:16.754Z,5.68
2022-12-05T00:57:19.807Z,5.25
2022-12-05T01:00:22.877Z,5.32
2022-12-05T01:03:25.867Z,5.07
2022-12-05T01:06:30.598Z,5.97
2022-12-05T01:09:33.760Z,5.35
2022-12-05T01:12:36.832Z,5.47
2022-12-05T01:15:39.841Z,5.35
2022-12-05T01:18:42.883Z,5.30
2022-12-05T01:21:47.740Z,4.63
2022-12-05T01:24:50.799Z,5.05
2022-12-05T01:27:53.856Z,4.32
2022-12-05T01:30:56.832Z,5.22
2022-12-05T01:34:02.110Z,4.90
2022-12-05T01:37:06.506Z,4.35
2022-12-05T01:40:10.727Z,4.22
2022-12-05T01:46:20.178Z,3.95
2022-12-05T01:49:31.941Z,3.47
2022-12-05T01:52:37.450Z,4.15
2022-12-05T01:55:40.618Z,4.25
2022-12-05T01:58:46.251Z,4.07
2022-12-05T02:01:49.985Z,3.60
2022-12-05T02:05:03.356Z,3.70
2022-12-05T02:08:11.256Z,4.10
2022-12-05T02:11:14.575Z,4.00
2022-12-05T02:14:33.396Z,3.50
2022-12-05T02:17:47.619Z,3.90
2022-12-05T02:21:22.089Z,3.55
2022-12-05T02:24:56.824Z,3.85
2022-12-05T02:28:32.390Z,3.80
2022-12-05T02:31:45.643Z,3.90
2022-12-05T02:34:59.072Z,3.63
2022-12-05T02:38:16.478Z,3.50
2022-12-05T02:41:28.781Z,3.47
2022-12-05T02:44:38.887Z,2.55
2022-12-05T02:47:48.176Z,3.28
2022-12-05T02:50:56.208Z,2.75
2022-12-05T02:54:05.511Z,3.08
2022-12-05T02:57:10.904Z,3.45
2022-12-05T03:00:15.820Z,3.63
2022-12-05T03:03:24.332Z,3.30
2022-12-05T03:06:31.953Z,3.45
2022-12-05T03:09:40.424Z,3.08
2022-12-05T03:12:51.734Z,3.00
2022-12-05T03:16:01.299Z,2.80
2022-12-05T03:19:21.129Z,2.53
2022-12-05T03:22:32.823Z,2.60
2022-12-05T03:25:44.720Z,2.97
2022-12-05T03:29:01.295Z,2.63
2022-12-05T03:32:10.803Z,2.28
2022-12-05T03:35:24.730Z,2.67
2022-12-05T03:38:35.661Z,2.55
2022-12-05T03:41:44.094Z,2.67
2022-12-05T03:44:54.910Z,2.33
2022-12-05T03:48:10.582Z,2.50
2022-12-05T03:51:21.717Z,2.25
2022-12-05T03:54:29.493Z,2.33
2022-12-05T03:57:39.712Z,2.42
2022-12-05T04:00:47.332Z,2.35
2022-12-05T04:03:57.360Z,2.38
2022-12-05T04:07:07.120Z,2.38
2022-12-05T04:10:18.815Z,2.00
2022-12-05T04:13:33.435Z,1.88
2022-12-05T04:17:02.088Z,1.95
2022-12-05T04:20:28.854Z,2.13
2022-12-05T04:23:33.741Z,2.13
2022-12-05T04:26:43.707Z,1.92
2022-12-05T04:29:57.765Z,1.83
2022-12-05T04:33:07.304Z,1.95
2022-12-05T04:36:17.072Z,2.03
2022-12-05T04:39:26.405Z,1.90
2022-12-05T04:42:34.450Z,1.42
2022-12-05T04:45:41.811Z,1.80
2022-12-05T04:48:51.631Z,1.42
2022-12-05T04:52:00.795Z,1.65
2022-12-05T04:55:11.470Z,1.48
2022-12-05T04:58:19.807Z,1.55
2022-12-05T05:01:28.736Z,1.30
2022-12-05T05:04:37.728Z,1.67
2022-12-05T05:07:47.106Z,1.30
2022-12-05T05:11:04.821Z,1.00
2022-12-05T05:14:07.979Z,1.27
2022-12-05T05:17:10.960Z,1.23
2022-12-05T05:20:27.132Z,0.95
2022-12-05T05:23:30.232Z,1.10
2022-12-05T05:26:37.090Z,1.00
2022-12-05T05:29:40.036Z,0.80
2022-12-05T05:32:42.969Z,1.05
2022-12-05T05:35:45.958Z,0.90
2022-12-05T05:38:52.049Z,0.70
2022-12-05T05:41:56.442Z,0.77
2022-12-05T05:44:59.388Z,0.90
2022-12-05T05:48:02.585Z,0.90
2022-12-05T05:51:07.631Z,0.73
2022-12-05T05:54:11.454Z,0.50
2022-12-05T05:57:20.202Z,0.70
2022-12-05T06:00:23.820Z,0.88
2022-12-05T06:03:27.014Z,0.47
2022-12-05T06:06:30.076Z,0.63
2022-12-05T06:09:33.147Z,0.55
2022-12-05T06:12:37.726Z,0.50
2022-12-05T06:15:41.862Z,0.40
2022-12-05T06:18:45.367Z,0.70
2022-12-05T06:21:51.527Z,0.70
2022-12-05T06:24:54.542Z,0.43
2022-12-05T06:27:59.344Z,0.47
2022-12-05T06:31:10.153Z,0.60
2022-12-05T06:34:13.408Z,0.68
2022-12-05T06:37:17.286Z,0.50
2022-12-05T06:40:20.999Z,0.57
2022-12-05T06:43:25.884Z,0.50
2022-12-05T06:46:29.371Z,0.60
2022-12-05T06:49:37.851Z,0.40
2022-12-05T06:52:41.578Z,0.52
2022-12-05T06:55:44.985Z,0.30
2022-12-05T06:58:52.387Z,0.50
2022-12-05T07:01:55.766Z,0.38
2022-12-05T07:04:58.834Z,0.40
2022-12-05T07:08:02.570Z,0.30
2022-12-05T07:11:05.898Z,0.50
2022-12-05T07:14:24.919Z,0.40
2022-12-05T07:21:10.167Z,0.30
2022-12-05T07:24:03.600Z,0.40
2022-12-05T07:27:07.524Z,0.40
2022-12-05T07:33:16.116Z,0.30
2022-12-05T07:36:22.618Z,0.30
2022-12-05T07:39:25.733Z,0.47
2022-12-05T07:42:28.691Z,0.28
2022-12-05T07:45:35.664Z,0.30
2022-12-05T07:48:38.901Z,0.40
2022-12-05T07:51:41.881Z,0.30
2022-12-05T07:54:44.869Z,0.20
2022-12-05T07:57:47.845Z,0.30
2022-12-05T08:00:52.368Z,0.20
2022-12-05T08:03:57.414Z,0.20
2022-12-05T08:07:00.368Z,0.30
2022-12-05T08:10:03.350Z,0.35
2022-12-05T08:13:07.980Z,0.45
2022-12-05T08:16:14.587Z,0.20
2022-12-05T08:19:17.845Z,0.20
2022-12-05T08:22:20.893Z,0.10
2022-12-05T08:25:23.944Z,0.20
2022-12-05T08:28:26.891Z,0.15
2022-12-05T08:31:35.192Z,0.13
2022-12-05T08:34:38.396Z,0.30
2022-12-05T08:37:41.381Z,0.17
2022-12-05T08:40:44.499Z,0.20
2022-12-05T08:43:47.622Z,0.20
2022-12-05T08:46:52.264Z,0.35
2022-12-05T08:49:55.277Z,0.15
2022-12-05T08:52:58.260Z,0.40
2022-12-05T08:56:02.970Z,0.40
2022-12-05T08:59:06.413Z,0.30
2022-12-05T09:02:12.024Z,0.20
2022-12-05T09:05:27.674Z,0.30
2022-12-05T09:08:31.981Z,0.20
2022-12-05T09:11:37.815Z,0.30
2022-12-05T09:14:40.745Z,0.30
2022-12-05T09:17:45.640Z,0.20
2022-12-05T09:20:48.633Z,0.20
2022-12-05T09:23:52.623Z,0.28
2022-12-05T09:26:55.537Z,0.55
2022-12-05T09:29:58.516Z,0.10
2022-12-05T09:33:02.927Z,0.13
2022-12-05T09:36:11.867Z,0.25
2022-12-05T09:39:14.843Z,0.30
2022-12-05T09:42:36.801Z,0.20
2022-12-05T09:45:46.997Z,0.30
2022-12-05T09:48:52.983Z,0.22
2022-12-05T09:51:59.366Z,0.32
2022-12-05T09:55:12.844Z,0.30
2022-12-05T09:58:27.255Z,0.40
2022-12-05T10:05:01.315Z,0.30
2022-12-05T10:08:16.881Z,0.30
2022-12-05T10:11:28.892Z,0.30
2022-12-05T10:14:44.305Z,0.25
2022-12-05T10:17:53.484Z,0.40
2022-12-05T10:21:06.470Z,0.50
2022-12-05T10:24:17.215Z,0.60
2022-12-05T10:27:25.354Z,0.43
2022-12-05T10:30:36.140Z,0.68
2022-12-05T10:33:44.305Z,0.70
2022-12-05T10:36:58.381Z,0.50
2022-12-05T10:40:01.480Z,0.60
2022-12-05T10:43:08.262Z,0.40
2022-12-05T10:46:16.812Z,0.50
2022-12-05T10:49:21.945Z,0.40
2022-12-05T10:52:33.428Z,0.40
2022-12-05T10:55:54.811Z,0.32
2022-12-05T10:59:06.728Z,0.60
2022-12-05T11:02:25.275Z,0.40
2022-12-05T11:05:40.371Z,0.35
2022-12-05T11:09:10.046Z,0.73
2022-12-05T11:12:22.316Z,0.32
2022-12-05T11:15:30.450Z,0.47
2022-12-05T11:18:36.527Z,0.30
2022-12-05T11:21:46.713Z,0.40
2022-12-05T11:24:51.316Z,0.40
2022-12-05T11:27:58.382Z,0.50
2022-12-05T11:31:18.324Z,0.40
2022-12-05T11:34:27.475Z,0.20
2022-12-05T11:37:39.292Z,0.30
2022-12-05T11:40:55.922Z,0.30
2022-12-05T11:44:19.252Z,0.55
2022-12-05T11:48:02.544Z,0.32
2022-12-05T11:51:30.034Z,0.65
2022-12-05T11:55:05.137Z,0.60
2022-12-05T11:58:47.765Z,0.30
2022-12-05T12:02:07.217Z,0.35
2022-12-05T12:05:24.231Z,0.60
2022-12-05T12:08:30.874Z,0.52
2022-12-05T12:11:44.466Z,0.70
2022-12-05T12:15:02.274Z,0.50
2022-12-05T12:18:33.040Z,0.70
2022-12-05T12:21:57.684Z,0.73
2022-12-05T12:25:21.936Z,0.40
2022-12-05T12:28:47.226Z,0.60
2022-12-05T12:32:17.251Z,0.93
2022-12-05T12:35:53.697Z,0.90
2022-12-05T12:39:17.731Z,0.70
2022-12-05T12:42:27.361Z,0.50
2022-12-05T12:45:52.296Z,0.73
2022-12-05T12:49:27.479Z,0.65
2022-12-05T12:53:05.839Z,0.60
2022-12-05T12:56:30.096Z,0.68
2022-12-05T12:59:57.645Z,0.90
2022-12-05T13:03:11.973Z,0.80
2022-12-05T13:06:28.653Z,0.65
2022-12-05T13:09:40.705Z,0.88
2022-12-05T13:12:47.153Z,0.68
2022-12-05T13:15:56.621Z,0.70
2022-12-05T13:19:02.532Z,0.80
2022-12-05T13:22:10.667Z,1.15
2022-12-05T13:25:19.759Z,0.90
2022-12-05T13:28:30.465Z,0.88
2022-12-05T13:31:47.385Z,0.90
2022-12-05T13:34:56.694Z,1.17
2022-12-05T13:38:23.012Z,1.20
2022-12-05T13:42:00.124Z,1.23
2022-12-05T13:45:17.195Z,1.20
2022-12-05T13:48:29.863Z,1.10
2022-12-05T13:51:39.811Z,1.10
2022-12-05T13:54:55.594Z,1.02
2022-12-05T13:58:00.607Z,0.80
2022-12-05T14:01:55.671Z,1.30
2022-12-05T14:04:59.299Z,0.73
2022-12-05T14:09:03.763Z,1.00
2022-12-05T14:12:49.214Z,0.82
2022-12-05T14:15:54.625Z,1.50
2022-12-05T14:19:07.590Z,1.23
2022-12-05T14:22:58.905Z,1.20
2022-12-05T14:26:24.015Z,1.00
2022-12-05T14:29:48.593Z,0.93
2022-12-05T14:32:54.614Z,1.00
2022-12-05T14:36:07.158Z,0.98
2022-12-05T14:39:23.588Z,1.02
2022-12-05T14:42:42.403Z,1.40
2022-12-05T14:46:02.039Z,1.35
2022-12-05T14:49:53.637Z,1.35
2022-12-05T14:53:33.178Z,1.05
2022-12-05T14:56:43.471Z,1.15
2022-12-05T14:59:53.766Z,1.75
2022-12-05T15:02:58.584Z,1.90
2022-12-05T15:06:07.699Z,1.73
2022-12-05T15:09:37.973Z,1.80
2022-12-05T15:12:48.098Z,1.52
2022-12-05T15:16:02.807Z,1.90
2022-12-05T15:19:16.533Z,1.73
2022-12-05T15:22:23.574Z,1.55
2022-12-05T15:25:33.561Z,1.73
2022-12-05T15:28:38.895Z,1.33
2022-12-05T15:31:51.190Z,0.85
2022-12-05T15:35:05.216Z,1.05
2022-12-05T15:38:26.860Z,1.15
2022-12-05T15:41:30.609Z,0.75
2022-12-05T15:44:38.054Z,0.90
2022-12-05T15:47:43.069Z,1.00
2022-12-05T15:50:52.945Z,1.02
2022-12-05T15:54:07.176Z,1.17
2022-12-05T15:57:18.700Z,0.73
2022-12-05T16:00:23.379Z,1.02
2022-12-05T16:03:39.852Z,1.25
2022-12-05T16:06:49.348Z,1.30
2022-12-05T16:09:56.245Z,1.15
2022-12-05T16:13:07.633Z,0.93
2022-12-05T16:16:18.609Z,1.17
2022-12-05T16:19:24.770Z,1.13
2022-12-05T16:22:33.771Z,1.17
2022-12-05T16:25:37.971Z,1.30
2022-12-05T16:31:45.200Z,1.05
2022-12-05T16:34:48.744Z,1.10
2022-12-05T16:38:12.637Z,1.73
2022-12-05T16:41:17.513Z,1.70
2022-12-05T16:45:03.330Z,1.45
2022-12-05T16:48:18.619Z,1.63
2022-12-05T16:51:25.810Z,1.60
2022-12-05T16:54:30.942Z,1.73
2022-12-05T16:57:34.004Z,1.58
2022-12-05T17:00:37.092Z,1.40
2022-12-05T17:03:40.089Z,1.27
2022-12-05T17:06:43.139Z,1.30
2022-12-05T17:09:48.456Z,1.65
2022-12-05T17:12:51.414Z,1.50
2022-12-05T17:15:54.418Z,1.60
2022-12-05T17:18:57.520Z,1.70
2022-12-05T17:22:01.743Z,1.63
2022-12-05T17:25:19.627Z,1.58
2022-12-05T17:28:23.966Z,1.77
2022-12-05T17:31:27.433Z,1.52
2022-12-05T17:34:30.935Z,1.27
2022-12-05T17:37:33.892Z,1.67
2022-12-05T17:40:39.832Z,1.55
2022-12-05T17:43:42.973Z,1.30
2022-12-05T17:46:46.053Z,1.67
2022-12-05T17:49:49.331Z,1.73
2022-12-05T17:52:57.133Z,1.50
2022-12-05T17:56:01.469Z,1.75
2022-12-05T17:59:07.395Z,1.42
2022-12-05T18:02:12.478Z,2.00
2022-12-05T18:05:17.185Z,2.13
2022-12-05T18:08:20.245Z,3.45
2022-12-05T18:11:24.718Z,4.03
2022-12-05T18:14:28.471Z,1.77
2022-12-05T18:17:31.902Z,1.75
2022-12-05T18:20:35.681Z,1.63
2022-12-05T18:23:40.103Z,1.58
2022-12-05T18:26:44.549Z,1.90
2022-12-05T18:29:49.218Z,1.40
2022-12-05T18:32:52.520Z,1.40
2022-12-05T18:35:55.531Z,1.70
2022-12-05T18:38:59.198Z,1.67
2022-12-05T18:42:03.866Z,2.00
2022-12-05T18:45:08.629Z,1.67
2022-12-05T18:48:37.778Z,1.65
2022-12-05T18:51:35.163Z,1.80
2022-12-05T18:54:38.550Z,1.77
2022-12-05T18:57:43.029Z,1.85
2022-12-05T19:00:46.021Z,1.80
2022-12-05T19:03:49.083Z,2.25
2022-12-05T19:06:54.936Z,1.92
2022-12-05T19:09:58.429Z,2.10
2022-12-05T19:13:02.690Z,1.83
2022-12-05T19:16:08.502Z,2.50
2022-12-05T19:19:15.496Z,2.22
2022-12-05T19:22:18.538Z,2.17
2022-12-05T19:25:21.588Z,2.63
2022-12-05T19:28:25.902Z,2.60
2022-12-05T19:31:30.658Z,2.30
2022-12-05T19:34:35.057Z,2.30
2022-12-05T19:37:38.063Z,2.60
2022-12-05T19:40:41.124Z,2.20
2022-12-05T19:43:45.673Z,2.20
2022-12-05T19:46:49.967Z,2.47
2022-12-05T19:49:53.021Z,2.42
2022-12-05T19:52:56.091Z,2.42
2022-12-05T19:56:02.321Z,2.58
2022-12-05T19:59:07.620Z,2.50
2022-12-05T20:02:10.720Z,2.55
2022-12-05T20:05:13.755Z,2.25
2022-12-05T20:08:16.916Z,2.20
2022-12-05T20:11:24.643Z,2.20
2022-12-05T20:14:29.112Z,2.40
2022-12-05T20:17:32.163Z,2.72
2022-12-05T20:20:35.097Z,2.65
2022-12-05T20:23:38.590Z,2.90
2022-12-05T20:26:45.451Z,2.85
2022-12-05T20:29:49.803Z,3.25
2022-12-05T20:32:52.805Z,2.78
2022-12-05T20:35:55.864Z,2.17
2022-12-05T20:39:01.670Z,2.80
2022-12-05T20:42:04.856Z,1.95
2022-12-05T20:45:10.638Z,2.40
2022-12-05T20:48:13.625Z,2.08
2022-12-05T20:51:19.188Z,2.10
2022-12-05T20:54:22.305Z,2.25
2022-12-05T20:57:25.359Z,2.10
2022-12-05T21:00:29.730Z,2.90
2022-12-05T21:03:33.281Z,2.15
2022-12-05T21:06:40.509Z,1.98
2022-12-05T21:09:44.153Z,1.92
2022-12-05T21:12:48.326Z,2.22
2022-12-05T21:15:52.798Z,2.10
2022-12-05T21:18:56.534Z,2.47
2022-12-05T21:21:59.518Z,2.30
2022-12-05T21:25:02.632Z,2.90
2022-12-05T21:28:05.787Z,2.42
2022-12-05T21:31:12.840Z,2.37
2022-12-05T21:34:20.227Z,2.72
2022-12-05T21:37:23.356Z,2.58
2022-12-05T21:40:26.688Z,2.35
2022-12-05T21:43:30.570Z,2.27
2022-12-05T21:46:35.433Z,2.50
2022-12-05T21:49:38.489Z,2.53
2022-12-05T21:52:41.705Z,2.22
2022-12-05T21:55:44.838Z,2.40
2022-12-05T21:58:48.272Z,2.38
2022-12-05T22:01:52.588Z,2.30
2022-12-05T22:04:55.695Z,1.98
2022-12-05T22:08:01.276Z,2.03
2022-12-05T22:11:11.147Z,1.83
2022-12-05T22:14:14.368Z,2.10
2022-12-05T22:17:18.730Z,2.30
2022-12-05T22:20:21.808Z,2.38
2022-12-05T22:23:25.008Z,2.35
2022-12-05T22:26:28.281Z,2.53
2022-12-05T22:29:31.261Z,2.17
2022-12-05T22:32:35.640Z,1.75
2022-12-05T22:35:39.356Z,1.70
2022-12-05T22:38:44.336Z,2.20
2022-12-05T22:41:47.325Z,1.70
2022-12-05T22:44:50.340Z,2.10
2022-12-05T22:47:55.050Z,2.30
2022-12-05T22:50:58.773Z,2.00
2022-12-05T22:54:01.954Z,2.08
2022-12-05T22:57:05.103Z,2.35
2022-12-05T23:00:10.460Z,2.10
2022-12-05T23:03:15.218Z,2.78
2022-12-05T23:06:19.487Z,3.00
2022-12-05T23:12:25.408Z,2.47
2022-12-05T23:15:28.433Z,2.70
2022-12-05T23:18:46.368Z,2.65
2022-12-05T23:21:49.371Z,2.60
2022-12-05T23:24:52.517Z,2.50
2022-12-05T23:27:55.511Z,2.20
2022-12-05T23:31:03.064Z,2.50
2022-12-05T23:34:08.105Z,2.55
2022-12-05T23:37:11.098Z,2.78
2022-12-05T23:40:14.373Z,2.22
2022-12-05T23:43:17.349Z,2.77
2022-12-05T23:46:23.804Z,2.03
2022-12-05T23:49:28.174Z,2.40
2022-12-05T23:52:31.240Z,2.17
2022-12-05T23:55:35.859Z,2.63
2022-12-05T23:58:39.569Z,2.10
